sensor_id;sensor_type;location;lat;lon;timestamp;pressure;altitude;pressure_sealevel;temperature;humidity
14204;BME280;7185;51.854;6.622;2023-02-03T00:02:00;102093.59;;;9.15;100.00
14204;BME280;7185;51.854;6.622;2023-02-03T00:04:32;102070.94;;;9.17;100.00
14204;BME280;7185;51.854;6.622;2023-02-03T00:07:03;102078.81;;;9.20;100.00
14204;BME280;7185;51.854;6.622;2023-02-03T00:09:35;102077.09;;;9.22;100.00
14204;BME280;7185;51.854;6.622;2023-02-03T00:12:07;102081.34;;;9.11;100.00
14204;BME280;7185;51.854;6.622;2023-02-03T00:14:40;102075.28;;;9.14;100.00
14204;BME280;7185;51.854;6.622;2023-02-03T00:17:12;102063.97;;;9.18;100.00
14204;BME280;7185;51.854;6.622;2023-02-03T00:19:44;102065.66;;;9.11;100.00
14204;BME280;7185;51.854;6.622;2023-02-03T00:22:15;102066.63;;;9.19;100.00
14204;BME280;7185;51.854;6.622;2023-02-03T00:24:47;102085.84;;;9.23;100.00
14204;BME280;7185;51.854;6.622;2023-02-03T00:27:19;102085.72;;;9.12;100.00
14204;BME280;7185;51.854;6.622;2023-02-03T00:29:51;102093.56;;;9.12;100.00
14204;BME280;7185;51.854;6.622;2023-02-03T00:32:23;102100.47;;;9.05;100.00
14204;BME280;7185;51.854;6.622;2023-02-03T00:34:55;102103.13;;;9.08;100.00
14204;BME280;7185;51.854;6.622;2023-02-03T00:37:26;102098.75;;;9.07;100.00
14204;BME280;7185;51.854;6.622;2023-02-03T00:39:58;102104.00;;;9.09;100.00
14204;BME280;7185;51.854;6.622;2023-02-03T00:42:29;102099.69;;;9.13;100.00
14204;BME280;7185;51.854;6.622;2023-02-03T00:45:02;102108.50;;;9.24;100.00
14204;BME280;7185;51.854;6.622;2023-02-03T00:47:34;102107.59;;;9.20;100.00
14204;BME280;7185;51.854;6.622;2023-02-03T00:50:06;102118.91;;;9.16;100.00
14204;BME280;7185;51.854;6.622;2023-02-03T00:52:38;102125.78;;;9.09;100.00
14204;BME280;7185;51.854;6.622;2023-02-03T00:55:10;102133.69;;;9.14;100.00
14204;BME280;7185;51.854;6.622;2023-02-03T00:57:41;102129.31;;;9.10;100.00
14204;BME280;7185;51.854;6.622;2023-02-03T01:00:15;102126.75;;;9.18;100.00
14204;BME280;7185;51.854;6.622;2023-02-03T01:02:47;102120.59;;;9.11;100.00
14204;BME280;7185;51.854;6.622;2023-02-03T01:05:19;102117.06;;;9.07;100.00
14204;BME280;7185;51.854;6.622;2023-02-03T01:07:50;102120.69;;;9.19;100.00
14204;BME280;7185;51.854;6.622;2023-02-03T01:10:22;102123.22;;;9.11;100.00
14204;BME280;7185;51.854;6.622;2023-02-03T01:12:53;102131.25;;;9.28;100.00
14204;BME280;7185;51.854;6.622;2023-02-03T01:15:26;102130.41;;;9.31;100.00
14204;BME280;7185;51.854;6.622;2023-02-03T01:17:58;102129.56;;;9.33;100.00
14204;BME280;7185;51.854;6.622;2023-02-03T01:20:29;102132.03;;;9.19;100.00
14204;BME280;7185;51.854;6.622;2023-02-03T01:23:01;102133.88;;;9.30;100.00
14204;BME280;7185;51.854;6.622;2023-02-03T01:25:34;102139.97;;;9.27;100.00
14204;BME280;7185;51.854;6.622;2023-02-03T01:28:05;102132.91;;;9.18;100.00
14204;BME280;7185;51.854;6.622;2023-02-03T01:30:38;102123.28;;;9.17;100.00
14204;BME280;7185;51.854;6.622;2023-02-03T01:33:10;102123.41;;;9.27;100.00
14204;BME280;7185;51.854;6.622;2023-02-03T01:35:41;102123.41;;;9.27;100.00
14204;BME280;7185;51.854;6.622;2023-02-03T01:38:13;102122.50;;;9.24;100.00
14204;BME280;7185;51.854;6.622;2023-02-03T01:40:44;102114.66;;;9.24;100.00
14204;BME280;7185;51.854;6.622;2023-02-03T01:43:28;102127.72;;;9.23;100.00
14204;BME280;7185;51.854;6.622;2023-02-03T01:46:03;102133.88;;;9.30;100.00
14204;BME280;7185;51.854;6.622;2023-02-03T01:48:35;102102.47;;;9.30;100.00
14204;BME280;7185;51.854;6.622;2023-02-03T01:51:07;102103.41;;;9.35;100.00
14204;BME280;7185;51.854;6.622;2023-02-03T01:53:39;102093.78;;;9.32;100.00
14204;BME280;7185;51.854;6.622;2023-02-03T01:56:12;102083.38;;;9.37;100.00
14204;BME280;7185;51.854;6.622;2023-02-03T01:58:45;102072.91;;;9.38;100.00
14204;BME280;7185;51.854;6.622;2023-02-03T02:01:19;102071.94;;;9.27;100.00
14204;BME280;7185;51.854;6.622;2023-02-03T02:03:54;102058.03;;;9.33;100.00
14204;BME280;7185;51.854;6.622;2023-02-03T02:06:27;102065.97;;;9.42;100.00
14204;BME280;7185;51.854;6.622;2023-02-03T02:08:58;102074.66;;;9.38;100.00
14204;BME280;7185;51.854;6.622;2023-02-03T02:11:31;102071.13;;;9.33;100.00
14204;BME280;7185;51.854;6.622;2023-02-03T02:14:03;102065.06;;;9.38;100.00
14204;BME280;7185;51.854;6.622;2023-02-03T02:16:43;102060.66;;;9.34;100.00
14204;BME280;7185;51.854;6.622;2023-02-03T02:19:47;102042.41;;;9.42;100.00
14204;BME280;7185;51.854;6.622;2023-02-03T02:22:29;102046.88;;;9.51;100.00
14204;BME280;7185;51.854;6.622;2023-02-03T02:25:28;102044.94;;;9.33;100.00
14204;BME280;7185;51.854;6.622;2023-02-03T02:28:37;102043.25;;;9.38;100.00
14204;BME280;7185;51.854;6.622;2023-02-03T02:31:42;102041.44;;;9.31;100.00
14204;BME280;7185;51.854;6.622;2023-02-03T02:34:22;102046.75;;;9.40;100.00
14204;BME280;7185;51.854;6.622;2023-02-03T02:36:57;102049.16;;;9.20;100.00
14204;BME280;7185;51.854;6.622;2023-02-03T02:39:37;102051.94;;;9.37;100.00
14204;BME280;7185;51.854;6.622;2023-02-03T02:42:14;102047.50;;;9.27;100.00
14204;BME280;7185;51.854;6.622;2023-02-03T02:44:50;102042.28;;;9.30;100.00
14204;BME280;7185;51.854;6.622;2023-02-03T02:47:27;102049.41;;;9.43;100.00
14204;BME280;7185;51.854;6.622;2023-02-03T02:50:04;102059.75;;;9.31;100.00
14204;BME280;7185;51.854;6.622;2023-02-03T02:52:40;102065.94;;;9.40;100.00
14204;BME280;7185;51.854;6.622;2023-02-03T02:55:15;102069.38;;;9.35;100.00
14204;BME280;7185;51.854;6.622;2023-02-03T02:57:48;102078.13;;;9.34;100.00
14204;BME280;7185;51.854;6.622;2023-02-03T03:00:21;102068.50;;;9.33;100.00
14204;BME280;7185;51.854;6.622;2023-02-03T03:02:54;102058.03;;;9.36;100.00
14204;BME280;7185;51.854;6.622;2023-02-03T03:05:27;102057.03;;;9.21;100.00
14204;BME280;7185;51.854;6.622;2023-02-03T03:08:00;102044.09;;;9.37;100.00
14204;BME280;7185;51.854;6.622;2023-02-03T03:10:33;102045.00;;;9.40;100.00
14204;BME280;7185;51.854;6.622;2023-02-03T03:13:13;102052.00;;;9.43;100.00
14204;BME280;7185;51.854;6.622;2023-02-03T03:15:47;102041.53;;;9.41;100.00
14204;BME280;7185;51.854;6.622;2023-02-03T03:18:24;102030.16;;;9.39;100.00
14204;BME280;7185;51.854;6.622;2023-02-03T03:21:00;102029.25;;;9.33;100.00
14204;BME280;7185;51.854;6.622;2023-02-03T03:23:37;102029.25;;;9.37;100.00
14204;BME280;7185;51.854;6.622;2023-02-03T03:26:13;102038.00;;;9.38;100.00
14204;BME280;7185;51.854;6.622;2023-02-03T03:28:48;102039.66;;;9.30;100.00
14204;BME280;7185;51.854;6.622;2023-02-03T03:31:20;102050.13;;;9.30;100.00
14204;BME280;7185;51.854;6.622;2023-02-03T03:33:53;102060.66;;;9.36;100.00
14204;BME280;7185;51.854;6.622;2023-02-03T03:36:29;102051.91;;;9.31;100.00
14204;BME280;7185;51.854;6.622;2023-02-03T03:39:04;102045.81;;;9.33;100.00
14204;BME280;7185;51.854;6.622;2023-02-03T03:41:43;102036.41;;;9.51;100.00
14204;BME280;7185;51.854;6.622;2023-02-03T03:44:18;102039.84;;;9.48;100.00
14204;BME280;7185;51.854;6.622;2023-02-03T03:46:57;102042.41;;;9.42;100.00
14204;BME280;7185;51.854;6.622;2023-02-03T03:49:34;102038.03;;;9.41;100.00
14204;BME280;7185;51.854;6.622;2023-02-03T03:52:08;102041.47;;;9.37;100.00
14204;BME280;7185;51.854;6.622;2023-02-03T03:54:41;102050.19;;;9.36;100.00
14204;BME280;7185;51.854;6.622;2023-02-03T03:57:17;102049.41;;;9.45;100.00
14204;BME280;7185;51.854;6.622;2023-02-03T03:59:52;102055.53;;;9.48;100.00
14204;BME280;7185;51.854;6.622;2023-02-03T04:02:25;102066.00;;;9.48;100.00
14204;BME280;7185;51.854;6.622;2023-02-03T04:04:59;102052.06;;;9.46;100.00
14204;BME280;7185;51.854;6.622;2023-02-03T04:07:38;102055.59;;;9.51;100.00
14204;BME280;7185;51.854;6.622;2023-02-03T04:10:17;102067.72;;;9.40;100.00
14204;BME280;7185;51.854;6.622;2023-02-03T04:12:51;102073.06;;;9.52;100.00
14204;BME280;7185;51.854;6.622;2023-02-03T04:15:22;102069.44;;;9.41;100.00
14204;BME280;7185;51.854;6.622;2023-02-03T04:17:54;102053.91;;;9.58;100.00
14204;BME280;7185;51.854;6.622;2023-02-03T04:20:29;102050.25;;;9.39;100.00
14204;BME280;7185;51.854;6.622;2023-02-03T04:23:01;102058.19;;;9.50;100.00
14204;BME280;7185;51.854;6.622;2023-02-03T04:25:33;102052.06;;;9.49;100.00
14204;BME280;7185;51.854;6.622;2023-02-03T04:28:04;102054.75;;;9.55;100.00
14204;BME280;7185;51.854;6.622;2023-02-03T04:30:36;102051.22;;;9.50;100.00
14204;BME280;7185;51.854;6.622;2023-02-03T04:33:07;102035.50;;;9.47;100.00
14204;BME280;7185;51.854;6.622;2023-02-03T04:35:40;102032.84;;;9.46;100.00
14204;BME280;7185;51.854;6.622;2023-02-03T04:38:12;102045.97;;;9.47;100.00
14204;BME280;7185;51.854;6.622;2023-02-03T04:40:44;102032.97;;;9.60;100.00
14204;BME280;7185;51.854;6.622;2023-02-03T04:43:16;102035.56;;;9.56;100.00
14204;BME280;7185;51.854;6.622;2023-02-03T04:45:47;102032.06;;;9.56;100.00
14204;BME280;7185;51.854;6.622;2023-02-03T04:48:19;102025.97;;;9.59;100.00
14204;BME280;7185;51.854;6.622;2023-02-03T04:50:52;102035.50;;;9.52;100.00
14204;BME280;7185;51.854;6.622;2023-02-03T04:53:23;102036.41;;;9.52;100.00
14204;BME280;7185;51.854;6.622;2023-02-03T04:55:55;102032.03;;;9.51;100.00
14204;BME280;7185;51.854;6.622;2023-02-03T04:58:26;102035.50;;;9.50;100.00
14204;BME280;7185;51.854;6.622;2023-02-03T05:01:05;102029.47;;;9.59;100.00
14204;BME280;7185;51.854;6.622;2023-02-03T05:03:37;102027.69;;;9.56;100.00
14204;BME280;7185;51.854;6.622;2023-02-03T05:06:10;102031.25;;;9.65;100.00
14204;BME280;7185;51.854;6.622;2023-02-03T05:08:41;102040.03;;;9.70;100.00
14204;BME280;7185;51.854;6.622;2023-02-03T05:11:13;102032.13;;;9.61;100.00
14204;BME280;7185;51.854;6.622;2023-02-03T05:13:45;102022.56;;;9.66;100.00
14204;BME280;7185;51.854;6.622;2023-02-03T05:16:16;102011.22;;;9.70;100.00
14204;BME280;7185;51.854;6.622;2023-02-03T05:18:48;102014.69;;;9.64;100.00
14204;BME280;7185;51.854;6.622;2023-02-03T05:21:21;102009.41;;;9.60;100.00
14204;BME280;7185;51.854;6.622;2023-02-03T05:23:52;102003.22;;;9.51;100.00
14204;BME280;7185;51.854;6.622;2023-02-03T05:26:24;102006.78;;;9.60;100.00
14204;BME280;7185;51.854;6.622;2023-02-03T05:28:55;102002.50;;;9.71;100.00
14204;BME280;7185;51.854;6.622;2023-02-03T05:31:27;101999.88;;;9.68;100.00
14204;BME280;7185;51.854;6.622;2023-02-03T05:33:58;102004.25;;;9.70;100.00
14204;BME280;7185;51.854;6.622;2023-02-03T05:36:31;101984.03;;;9.52;100.00
14204;BME280;7185;51.854;6.622;2023-02-03T05:39:03;102004.13;;;9.56;100.00
14204;BME280;7185;51.854;6.622;2023-02-03T05:41:35;102006.03;;;9.71;100.00
14204;BME280;7185;51.854;6.622;2023-02-03T05:44:26;102008.59;;;9.67;100.00
14204;BME280;7185;51.854;6.622;2023-02-03T05:46:58;102015.53;;;9.62;100.00
14204;BME280;7185;51.854;6.622;2023-02-03T05:49:30;102010.31;;;9.62;100.00
14204;BME280;7185;51.854;6.622;2023-02-03T05:52:03;102012.03;;;9.60;100.00
14204;BME280;7185;51.854;6.622;2023-02-03T05:54:34;102020.84;;;9.69;100.00
14204;BME280;7185;51.854;6.622;2023-02-03T05:57:06;102023.31;;;9.55;100.00
14204;BME280;7185;51.854;6.622;2023-02-03T05:59:39;102022.50;;;9.63;100.00
14204;BME280;7185;51.854;6.622;2023-02-03T06:02:10;102008.63;;;9.73;100.00
14204;BME280;7185;51.854;6.622;2023-02-03T06:04:42;102008.47;;;9.51;100.00
14204;BME280;7185;51.854;6.622;2023-02-03T06:07:15;102021.69;;;9.65;100.00
14204;BME280;7185;51.854;6.622;2023-02-03T06:09:46;102005.91;;;9.59;100.00
14204;BME280;7185;51.854;6.622;2023-02-03T06:12:18;102012.88;;;9.60;100.00
14204;BME280;7185;51.854;6.622;2023-02-03T06:14:49;102026.06;;;9.69;100.00
14204;BME280;7185;51.854;6.622;2023-02-03T06:17:21;102027.00;;;9.78;100.00
14204;BME280;7185;51.854;6.622;2023-02-03T06:19:53;102025.25;;;9.80;100.00
14204;BME280;7185;51.854;6.622;2023-02-03T06:22:26;102007.75;;;9.68;100.00
14204;BME280;7185;51.854;6.622;2023-02-03T06:24:57;102026.88;;;9.62;100.00
14204;BME280;7185;51.854;6.622;2023-02-03T06:27:29;102015.59;;;9.71;100.00
14204;BME280;7185;51.854;6.622;2023-02-03T06:30:01;102016.31;;;9.53;100.00
14204;BME280;7185;51.854;6.622;2023-02-03T06:32:32;102013.00;;;9.72;100.00
14204;BME280;7185;51.854;6.622;2023-02-03T06:35:04;102017.34;;;9.72;100.00
14204;BME280;7185;51.854;6.622;2023-02-03T06:37:37;102017.31;;;9.66;100.00
14204;BME280;7185;51.854;6.622;2023-02-03T06:40:10;102019.13;;;9.73;100.00
14204;BME280;7185;51.854;6.622;2023-02-03T06:42:44;102015.56;;;9.65;100.00
14204;BME280;7185;51.854;6.622;2023-02-03T06:45:16;102024.34;;;9.73;100.00
14204;BME280;7185;51.854;6.622;2023-02-03T06:47:48;102034.78;;;9.70;100.00
14204;BME280;7185;51.854;6.622;2023-02-03T06:50:20;102028.75;;;9.76;100.00
14204;BME280;7185;51.854;6.622;2023-02-03T06:52:53;102041.88;;;9.79;100.00
14204;BME280;7185;51.854;6.622;2023-02-03T06:55:24;102041.78;;;9.68;100.00
14204;BME280;7185;51.854;6.622;2023-02-03T06:57:56;102039.06;;;9.57;100.00
14204;BME280;7185;51.854;6.622;2023-02-03T07:00:27;102060.13;;;9.71;100.00
14204;BME280;7185;51.854;6.622;2023-02-03T07:02:59;102059.31;;;9.78;100.00
14204;BME280;7185;51.854;6.622;2023-02-03T07:05:31;102049.78;;;9.86;100.00
14204;BME280;7185;51.854;6.622;2023-02-03T07:08:04;102055.84;;;9.79;100.00
14204;BME280;7185;51.854;6.622;2023-02-03T07:10:36;102066.31;;;9.79;100.00
14204;BME280;7185;51.854;6.622;2023-02-03T07:13:08;102059.25;;;9.72;100.00
14204;BME280;7185;51.854;6.622;2023-02-03T07:15:39;102061.03;;;9.76;100.00
14204;BME280;7185;51.854;6.622;2023-02-03T07:18:11;102062.84;;;9.80;100.00
14204;BME280;7185;51.854;6.622;2023-02-03T07:20:43;102060.97;;;9.70;100.00
14204;BME280;7185;51.854;6.622;2023-02-03T07:23:16;102054.03;;;9.69;100.00
14204;BME280;7185;51.854;6.622;2023-02-03T07:25:48;102054.97;;;9.80;100.00
14204;BME280;7185;51.854;6.622;2023-02-03T07:28:19;102056.63;;;9.70;100.00
14204;BME280;7185;51.854;6.622;2023-02-03T07:30:51;102061.06;;;9.79;100.00
14204;BME280;7185;51.854;6.622;2023-02-03T07:33:23;102072.44;;;9.81;100.00
14204;BME280;7185;51.854;6.622;2023-02-03T07:35:56;102069.84;;;9.81;100.00
14204;BME280;7185;51.854;6.622;2023-02-03T07:38:29;102066.25;;;9.73;100.00
14204;BME280;7185;51.854;6.622;2023-02-03T07:41:01;102064.50;;;9.73;100.00
14204;BME280;7185;51.854;6.622;2023-02-03T07:43:32;102045.34;;;9.79;100.00
14204;BME280;7185;51.854;6.622;2023-02-03T07:46:04;102047.88;;;9.70;100.00
14204;BME280;7185;51.854;6.622;2023-02-03T07:48:36;102056.69;;;9.78;100.00
14204;BME280;7185;51.854;6.622;2023-02-03T07:51:07;102047.13;;;9.83;100.00
14204;BME280;7185;51.854;6.622;2023-02-03T07:53:40;102054.06;;;9.75;100.00
14204;BME280;7185;51.854;6.622;2023-02-03T07:56:12;102056.66;;;9.73;100.00
14204;BME280;7185;51.854;6.622;2023-02-03T07:58:43;102056.72;;;9.81;100.00
14204;BME280;7185;51.854;6.622;2023-02-03T08:01:15;102062.69;;;9.65;100.00
14204;BME280;7185;51.854;6.622;2023-02-03T08:03:47;102077.72;;;9.86;100.00
14204;BME280;7185;51.854;6.622;2023-02-03T08:06:19;102067.03;;;9.61;100.00
14204;BME280;7185;51.854;6.622;2023-02-03T08:08:52;102074.16;;;9.81;100.00
14204;BME280;7185;51.854;6.622;2023-02-03T08:11:24;102087.22;;;9.75;100.00
14204;BME280;7185;51.854;6.622;2023-02-03T08:13:56;102081.94;;;9.67;100.00
14204;BME280;7185;51.854;6.622;2023-02-03T08:16:27;102067.94;;;9.66;100.00
14204;BME280;7185;51.854;6.622;2023-02-03T08:18:59;102077.50;;;9.61;100.00
14204;BME280;7185;51.854;6.622;2023-02-03T08:21:31;102089.72;;;9.62;100.00
14204;BME280;7185;51.854;6.622;2023-02-03T08:24:04;102077.53;;;9.66;100.00
14204;BME280;7185;51.854;6.622;2023-02-03T08:26:36;102090.69;;;9.72;100.00
14204;BME280;7185;51.854;6.622;2023-02-03T08:29:08;102082.84;;;9.70;100.00
14204;BME280;7185;51.854;6.622;2023-02-03T08:31:40;102080.28;;;9.78;100.00
14204;BME280;7185;51.854;6.622;2023-02-03T08:34:12;102083.69;;;9.68;100.00
14204;BME280;7185;51.854;6.622;2023-02-03T08:36:44;102088.06;;;9.69;100.00
14204;BME280;7185;51.854;6.622;2023-02-03T08:39:17;102087.16;;;9.70;100.00
14204;BME280;7185;51.854;6.622;2023-02-03T08:41:48;102071.50;;;9.73;100.00
14204;BME280;7185;51.854;6.622;2023-02-03T08:44:20;102075.88;;;9.77;100.00
14204;BME280;7185;51.854;6.622;2023-02-03T08:46:52;102067.94;;;9.65;100.00
14204;BME280;7185;51.854;6.622;2023-02-03T08:49:25;102070.66;;;9.76;100.00
14204;BME280;7185;51.854;6.622;2023-02-03T08:51:58;102079.25;;;9.61;100.00
14204;BME280;7185;51.854;6.622;2023-02-03T08:54:31;102072.41;;;9.75;100.00
14204;BME280;7185;51.854;6.622;2023-02-03T08:57:03;102075.06;;;9.81;100.00
14204;BME280;7185;51.854;6.622;2023-02-03T08:59:37;102090.63;;;9.66;100.00
14204;BME280;7185;51.854;6.622;2023-02-03T09:02:13;102089.94;;;9.87;100.00
14204;BME280;7185;51.854;6.622;2023-02-03T09:04:45;102083.78;;;9.80;100.00
14204;BME280;7185;51.854;6.622;2023-02-03T09:07:18;102080.31;;;9.81;100.00
14204;BME280;7185;51.854;6.622;2023-02-03T09:09:50;102102.94;;;9.76;100.00
14204;BME280;7185;51.854;6.622;2023-02-03T09:12:22;102083.75;;;9.77;100.00
14204;BME280;7185;51.854;6.622;2023-02-03T09:14:54;102082.03;;;9.79;100.00
14204;BME280;7185;51.854;6.622;2023-02-03T09:17:25;102091.69;;;9.85;100.00
14204;BME280;7185;51.854;6.622;2023-02-03T09:19:58;102089.88;;;9.81;100.00
14204;BME280;7185;51.854;6.622;2023-02-03T09:22:29;102095.22;;;9.88;100.00
14204;BME280;7185;51.854;6.622;2023-02-03T09:25:02;102094.22;;;9.77;100.00
14204;BME280;7185;51.854;6.622;2023-02-03T09:27:34;102090.88;;;9.94;100.00
14204;BME280;7185;51.854;6.622;2023-02-03T09:30:06;102095.16;;;9.82;100.00
14204;BME280;7185;51.854;6.622;2023-02-03T09:32:38;102092.59;;;9.88;100.00
14204;BME280;7185;51.854;6.622;2023-02-03T09:35:10;102106.56;;;9.91;100.00
14204;BME280;7185;51.854;6.622;2023-02-03T09:37:41;102108.38;;;9.98;100.00
14204;BME280;7185;51.854;6.622;2023-02-03T09:40:19;102105.66;;;9.85;100.00
14204;BME280;7185;51.854;6.622;2023-02-03T09:43:04;102104.88;;;9.96;100.00
14204;BME280;7185;51.854;6.622;2023-02-03T09:45:40;102092.72;;;10.04;100.00
14204;BME280;7185;51.854;6.622;2023-02-03T09:48:16;102090.88;;;9.94;100.00
14204;BME280;7185;51.854;6.622;2023-02-03T09:50:50;102098.75;;;9.94;100.00
14204;BME280;7185;51.854;6.622;2023-02-03T09:53:26;102113.66;;;10.01;100.00
14204;BME280;7185;51.854;6.622;2023-02-03T09:56:02;102104.00;;;9.95;100.00
14204;BME280;7185;51.854;6.622;2023-02-03T09:58:34;102110.19;;;10.05;100.00
14204;BME280;7185;51.854;6.622;2023-02-03T10:01:09;102123.31;;;10.07;100.00
14204;BME280;7185;51.854;6.622;2023-02-03T10:03:50;102111.06;;;10.05;100.00
14204;BME280;7185;51.854;6.622;2023-02-03T10:06:30;102119.81;;;10.04;100.00
14204;BME280;7185;51.854;6.622;2023-02-03T10:09:20;102118.03;;;10.03;100.00
14204;BME280;7185;51.854;6.622;2023-02-03T10:12:11;102105.75;;;9.93;100.00
14204;BME280;7185;51.854;6.622;2023-02-03T10:14:55;102115.41;;;10.05;100.00
14204;BME280;7185;51.854;6.622;2023-02-03T10:17:33;102114.59;;;10.12;100.00
14204;BME280;7185;51.854;6.622;2023-02-03T10:20:13;102119.81;;;10.04;100.00
14204;BME280;7185;51.854;6.622;2023-02-03T10:22:50;102120.69;;;10.08;100.00
14204;BME280;7185;51.854;6.622;2023-02-03T10:25:32;102125.09;;;10.12;100.00
14204;BME280;7185;51.854;6.622;2023-02-03T10:28:11;102122.41;;;10.03;100.00
14204;BME280;7185;51.854;6.622;2023-02-03T10:30:47;102121.59;;;10.13;100.00
14204;BME280;7185;51.854;6.622;2023-02-03T10:33:20;102121.56;;;10.07;100.00
14204;BME280;7185;51.854;6.622;2023-02-03T10:35:54;102123.22;;;9.99;100.00
14204;BME280;7185;51.854;6.622;2023-02-03T10:38:37;102126.84;;;10.10;100.00
14204;BME280;7185;51.854;6.622;2023-02-03T10:41:11;102131.28;;;10.20;100.00
14204;BME280;7185;51.854;6.622;2023-02-03T10:43:45;102131.22;;;10.14;100.00
14204;BME280;7185;51.854;6.622;2023-02-03T10:46:26;102147.06;;;10.27;100.00
14204;BME280;7185;51.854;6.622;2023-02-03T10:48:58;102131.22;;;10.11;100.00
14204;BME280;7185;51.854;6.622;2023-02-03T10:51:35;102146.81;;;9.99;100.00
14204;BME280;7185;51.854;6.622;2023-02-03T10:54:26;102140.03;;;10.23;100.00
14204;BME280;7185;51.854;6.622;2023-02-03T10:57:02;102141.72;;;10.11;100.00
14204;BME280;7185;51.854;6.622;2023-02-03T10:59:41;102137.38;;;10.18;100.00
14204;BME280;7185;51.854;6.622;2023-02-03T11:02:21;102144.59;;;10.42;100.00
14204;BME280;7185;51.854;6.622;2023-02-03T11:05:08;102149.75;;;10.34;100.00
14204;BME280;7185;51.854;6.622;2023-02-03T11:07:41;102140.97;;;10.31;100.00
14204;BME280;7185;51.854;6.622;2023-02-03T11:10:30;102130.47;;;10.28;100.00
14204;BME280;7185;51.854;6.622;2023-02-03T11:13:18;102150.47;;;10.19;100.00
14204;BME280;7185;51.854;6.622;2023-02-03T11:15:53;102144.50;;;10.34;100.00
14204;BME280;7185;51.854;6.622;2023-02-03T11:18:37;102155.84;;;10.35;100.00
14204;BME280;7185;51.854;6.622;2023-02-03T11:21:13;102155.84;;;10.32;100.00
14204;BME280;7185;51.854;6.622;2023-02-03T11:23:49;102147.28;;;10.51;100.00
14204;BME280;7185;51.854;6.622;2023-02-03T11:26:25;102145.44;;;10.38;100.00
14204;BME280;7185;51.854;6.622;2023-02-03T11:28:59;102148.72;;;10.18;100.00
14204;BME280;7185;51.854;6.622;2023-02-03T11:31:34;102145.44;;;10.38;100.00
14204;BME280;7185;51.854;6.622;2023-02-03T11:34:15;102140.19;;;10.38;100.00
14204;BME280;7185;51.854;6.622;2023-02-03T11:36:47;102147.25;;;10.48;100.00
14204;BME280;7185;51.854;6.622;2023-02-03T11:39:24;102139.41;;;10.51;100.00
14204;BME280;7185;51.854;6.622;2023-02-03T11:41:56;102142.00;;;10.45;100.00
14204;BME280;7185;51.854;6.622;2023-02-03T11:44:28;102134.16;;;10.50;100.00
14204;BME280;7185;51.854;6.622;2023-02-03T11:47:08;102148.97;;;10.43;100.00
14204;BME280;7185;51.854;6.622;2023-02-03T11:50:08;102144.63;;;10.45;100.00
14204;BME280;7185;51.854;6.622;2023-02-03T11:53:04;102150.69;;;10.40;100.00
14204;BME280;7185;51.854;6.622;2023-02-03T11:55:50;102159.56;;;10.62;100.00
14204;BME280;7185;51.854;6.622;2023-02-03T11:58:44;102156.03;;;10.54;100.00
14204;BME280;7185;51.854;6.622;2023-02-03T12:01:37;102166.56;;;10.63;100.00
14204;BME280;7185;51.854;6.622;2023-02-03T12:10:13;102169.34;;;10.81;100.00
14204;BME280;7185;51.854;6.622;2023-02-03T12:12:51;102168.53;;;10.95;100.00
14204;BME280;7185;51.854;6.622;2023-02-03T12:15:41;102165.03;;;10.96;100.00
14204;BME280;7185;51.854;6.622;2023-02-03T12:18:28;102171.22;;;11.07;100.00
14204;BME280;7185;51.854;6.622;2023-02-03T12:21:20;102160.59;;;10.84;100.00
14204;BME280;7185;51.854;6.622;2023-02-03T12:24:02;102179.88;;;10.88;100.00
14204;BME280;7185;51.854;6.622;2023-02-03T12:26:40;102166.91;;;11.20;100.00
14204;BME280;7185;51.854;6.622;2023-02-03T12:29:16;102166.78;;;10.97;100.00
14204;BME280;7185;51.854;6.622;2023-02-03T12:32:04;102184.31;;;11.01;100.00
14204;BME280;7185;51.854;6.622;2023-02-03T12:34:39;102180.88;;;11.14;100.00
14204;BME280;7185;51.854;6.622;2023-02-03T12:37:21;102176.50;;;11.18;100.00
14204;BME280;7185;51.854;6.622;2023-02-03T12:39:57;102175.69;;;11.30;100.00
14204;BME280;7185;51.854;6.622;2023-02-03T12:42:35;102190.56;;;11.34;100.00
14204;BME280;7185;51.854;6.622;2023-02-03T12:45:12;102193.13;;;11.15;100.00
14204;BME280;7185;51.854;6.622;2023-02-03T12:47:50;102192.25;;;11.12;100.00
14204;BME280;7185;51.854;6.622;2023-02-03T12:50:27;102208.88;;;11.15;100.00
14204;BME280;7185;51.854;6.622;2023-02-03T12:53:05;102206.91;;;10.74;100.00
14204;BME280;7185;51.854;6.622;2023-02-03T12:55:43;102216.44;;;10.69;100.00
14204;BME280;7185;51.854;6.622;2023-02-03T12:58:20;102204.06;;;10.51;100.00
14204;BME280;7185;51.854;6.622;2023-02-03T13:00:57;102209.34;;;10.52;100.00
14204;BME280;7185;51.854;6.622;2023-02-03T13:03:35;102215.47;;;10.50;100.00
14204;BME280;7185;51.854;6.622;2023-02-03T13:06:14;102210.22;;;10.55;100.00
14204;BME280;7185;51.854;6.622;2023-02-03T13:08:54;102208.47;;;10.52;100.00
14204;BME280;7185;51.854;6.622;2023-02-03T13:11:33;102215.41;;;10.45;100.00
14204;BME280;7185;51.854;6.622;2023-02-03T13:14:13;102202.34;;;10.53;100.00
14204;BME280;7185;51.854;6.622;2023-02-03T13:16:49;102197.19;;;10.65;100.00
14204;BME280;7185;51.854;6.622;2023-02-03T13:19:25;102193.59;;;10.48;100.00
14204;BME280;7185;51.854;6.622;2023-02-03T13:21:58;102197.16;;;10.59;100.00
14204;BME280;7185;51.854;6.622;2023-02-03T13:24:31;102187.44;;;10.43;100.00
14204;BME280;7185;51.854;6.622;2023-02-03T13:27:29;102211.13;;;10.57;100.00
14204;BME280;7185;51.854;6.622;2023-02-03T13:36:07;102209.44;;;10.63;100.00
14204;BME280;7185;51.854;6.622;2023-02-03T13:38:54;102219.84;;;10.54;100.00
14204;BME280;7185;51.854;6.622;2023-02-03T13:41:40;102232.91;;;10.46;100.00
14204;BME280;7185;51.854;6.622;2023-02-03T13:44:17;102225.97;;;10.55;100.00
14204;BME280;7185;51.854;6.622;2023-02-03T13:46:51;102223.38;;;10.59;100.00
14204;BME280;7185;51.854;6.622;2023-02-03T13:49:25;102219.03;;;10.63;100.00
14204;BME280;7185;51.854;6.622;2023-02-03T13:51:58;102219.84;;;10.54;100.00